sensor_id;sensor_type;location;lat;lon;timestamp;pressure;altitude;pressure_sealevel;temperature;humidity
10348;BME280;5220;43.192;23.284;2023-05-01T00:01:54;96970.16;;;13.60;100.00
10348;BME280;5220;43.192;23.284;2023-05-01T00:04:22;96966.06;;;13.67;100.00
10348;BME280;5220;43.192;23.284;2023-05-01T00:06:48;96962.09;;;13.73;100.00
10348;BME280;5220;43.192;23.284;2023-05-01T00:09:15;96971.22;;;13.78;100.00
10348;BME280;5220;43.192;23.284;2023-05-01T00:11:42;96964.63;;;13.84;100.00
10348;BME280;5220;43.192;23.284;2023-05-01T00:14:10;96960.59;;;13.80;100.00
10348;BME280;5220;43.192;23.284;2023-05-01T00:16:37;96971.56;;;13.94;100.00
10348;BME280;5220;43.192;23.284;2023-05-01T00:19:03;96972.25;;;13.96;100.00
10348;BME280;5220;43.192;23.284;2023-05-01T00:21:31;96968.13;;;14.04;100.00
10348;BME280;5220;43.192;23.284;2023-05-01T00:23:58;96967.88;;;14.07;100.00
10348;BME280;5220;43.192;23.284;2023-05-01T00:26:25;96975.84;;;14.05;100.00
10348;BME280;5220;43.192;23.284;2023-05-01T00:28:54;96967.44;;;14.01;100.00
10348;BME280;5220;43.192;23.284;2023-05-01T00:31:23;96969.75;;;13.95;100.00
10348;BME280;5220;43.192;23.284;2023-05-01T00:33:49;96974.03;;;13.96;100.00
10348;BME280;5220;43.192;23.284;2023-05-01T00:36:16;96973.72;;;13.89;100.00
10348;BME280;5220;43.192;23.284;2023-05-01T00:38:44;96980.88;;;13.87;100.00
10348;BME280;5220;43.192;23.284;2023-05-01T00:41:11;96978.78;;;13.81;100.00
10348;BME280;5220;43.192;23.284;2023-05-01T00:43:38;96978.59;;;13.73;100.00
10348;BME280;5220;43.192;23.284;2023-05-01T00:46:06;96974.81;;;13.57;100.00
10348;BME280;5220;43.192;23.284;2023-05-01T00:48:34;96986.09;;;13.57;100.00
10348;BME280;5220;43.192;23.284;2023-05-01T00:51:03;96985.66;;;13.52;100.00
10348;BME280;5220;43.192;23.284;2023-05-01T00:53:32;96973.09;;;13.46;100.00
10348;BME280;5220;43.192;23.284;2023-05-01T00:56:00;96974.88;;;13.45;100.00
10348;BME280;5220;43.192;23.284;2023-05-01T00:58:28;96975.53;;;13.38;100.00
10348;BME280;5220;43.192;23.284;2023-05-01T01:00:55;96984.22;;;13.38;100.00
10348;BME280;5220;43.192;23.284;2023-05-01T01:03:22;96984.41;;;13.26;100.00
10348;BME280;5220;43.192;23.284;2023-05-01T01:05:52;96988.31;;;13.20;100.00
10348;BME280;5220;43.192;23.284;2023-05-01T01:08:25;96981.66;;;12.95;100.00
10348;BME280;5220;43.192;23.284;2023-05-01T01:10:54;96983.94;;;12.89;100.00
10348;BME280;5220;43.192;23.284;2023-05-01T01:13:30;96975.50;;;12.97;100.00
10348;BME280;5220;43.192;23.284;2023-05-01T01:16:05;96992.03;;;12.86;100.00
10348;BME280;5220;43.192;23.284;2023-05-01T01:18:39;96985.00;;;12.98;100.00
10348;BME280;5220;43.192;23.284;2023-05-01T01:21:11;96990.06;;;12.99;100.00
10348;BME280;5220;43.192;23.284;2023-05-01T01:24:22;96997.41;;;13.16;100.00
10348;BME280;5220;43.192;23.284;2023-05-01T01:30:38;96998.75;;;13.00;100.00
10348;BME280;5220;43.192;23.284;2023-05-01T01:36:10;96994.03;;;12.93;100.00
10348;BME280;5220;43.192;23.284;2023-05-01T01:38:44;96987.53;;;12.88;100.00
10348;BME280;5220;43.192;23.284;2023-05-01T01:41:16;96982.75;;;12.93;100.00
10348;BME280;5220;43.192;23.284;2023-05-01T01:43:47;96985.25;;;12.94;100.00
10348;BME280;5220;43.192;23.284;2023-05-01T01:46:16;96987.09;;;12.72;100.00
10348;BME280;5220;43.192;23.284;2023-05-01T01:48:47;96989.47;;;12.75;100.00
10348;BME280;5220;43.192;23.284;2023-05-01T01:51:18;96983.66;;;12.71;100.00
10348;BME280;5220;43.192;23.284;2023-05-01T01:53:49;96993.22;;;12.50;100.00
10348;BME280;5220;43.192;23.284;2023-05-01T01:56:19;96990.06;;;12.67;100.00
10348;BME280;5220;43.192;23.284;2023-05-01T01:58:47;96985.41;;;12.82;100.00
10348;BME280;5220;43.192;23.284;2023-05-01T02:01:18;96983.88;;;12.79;100.00
10348;BME280;5220;43.192;23.284;2023-05-01T02:03:45;96983.16;;;12.77;100.00
10348;BME280;5220;43.192;23.284;2023-05-01T02:06:14;96984.19;;;12.86;100.00
10348;BME280;5220;43.192;23.284;2023-05-01T02:08:45;96981.22;;;12.90;100.00
10348;BME280;5220;43.192;23.284;2023-05-01T02:11:14;96989.06;;;12.90;100.00
10348;BME280;5220;43.192;23.284;2023-05-01T02:13:43;96984.06;;;12.87;100.00
10348;BME280;5220;43.192;23.284;2023-05-01T02:16:11;96979.94;;;12.85;100.00
10348;BME280;5220;43.192;23.284;2023-05-01T02:18:39;96991.22;;;12.85;100.00
10348;BME280;5220;43.192;23.284;2023-05-01T02:21:06;96993.84;;;12.74;100.00
10348;BME280;5220;43.192;23.284;2023-05-01T02:23:34;96989.03;;;12.70;100.00
10348;BME280;5220;43.192;23.284;2023-05-01T02:26:03;96987.22;;;12.70;100.00
10348;BME280;5220;43.192;23.284;2023-05-01T02:28:31;96996.50;;;12.63;100.00
10348;BME280;5220;43.192;23.284;2023-05-01T02:30:59;96989.53;;;12.64;100.00
10348;BME280;5220;43.192;23.284;2023-05-01T02:33:26;96985.41;;;12.50;100.00
10348;BME280;5220;43.192;23.284;2023-05-01T02:35:53;96998.25;;;12.42;100.00
10348;BME280;5220;43.192;23.284;2023-05-01T02:38:20;96999.66;;;12.35;100.00
10348;BME280;5220;43.192;23.284;2023-05-01T02:40:50;96996.00;;;12.15;100.00
10348;BME280;5220;43.192;23.284;2023-05-01T02:43:19;96997.06;;;12.24;100.00
10348;BME280;5220;43.192;23.284;2023-05-01T02:45:48;96997.88;;;12.24;100.00
10348;BME280;5220;43.192;23.284;2023-05-01T02:48:20;97001.34;;;12.25;100.00
10348;BME280;5220;43.192;23.284;2023-05-01T02:50:48;97006.78;;;12.22;100.00
10348;BME280;5220;43.192;23.284;2023-05-01T02:53:16;97011.78;;;12.25;100.00
10348;BME280;5220;43.192;23.284;2023-05-01T02:55:43;97007.72;;;12.21;100.00
10348;BME280;5220;43.192;23.284;2023-05-01T02:58:14;97007.72;;;12.21;100.00
10348;BME280;5220;43.192;23.284;2023-05-01T03:00:42;97011.41;;;12.18;100.00
10348;BME280;5220;43.192;23.284;2023-05-01T03:03:09;97013.31;;;12.16;100.00
10348;BME280;5220;43.192;23.284;2023-05-01T03:05:36;97008.81;;;12.18;100.00
10348;BME280;5220;43.192;23.284;2023-05-01T03:08:04;97008.94;;;12.17;100.00
10348;BME280;5220;43.192;23.284;2023-05-01T03:10:31;97014.16;;;12.06;100.00
10348;BME280;5220;43.192;23.284;2023-05-01T03:12:58;97014.03;;;12.07;100.00
10348;BME280;5220;43.192;23.284;2023-05-01T03:15:24;97012.84;;;12.11;100.00
10348;BME280;5220;43.192;23.284;2023-05-01T03:17:52;97010.84;;;12.04;100.00
10348;BME280;5220;43.192;23.284;2023-05-01T03:20:19;97015.00;;;11.95;100.00
10348;BME280;5220;43.192;23.284;2023-05-01T03:22:46;97006.81;;;12.00;100.00
10348;BME280;5220;43.192;23.284;2023-05-01T03:25:12;97010.38;;;12.10;100.00
10348;BME280;5220;43.192;23.284;2023-05-01T03:27:39;97017.00;;;12.03;100.00
10348;BME280;5220;43.192;23.284;2023-05-01T03:30:08;97016.19;;;12.13;100.00
10348;BME280;5220;43.192;23.284;2023-05-01T03:32:35;97022.22;;;12.14;100.00
10348;BME280;5220;43.192;23.284;2023-05-01T03:35:03;97017.94;;;12.13;100.00
10348;BME280;5220;43.192;23.284;2023-05-01T03:37:30;97023.41;;;12.10;100.00
10348;BME280;5220;43.192;23.284;2023-05-01T03:39:58;97024.69;;;12.15;100.00
10348;BME280;5220;43.192;23.284;2023-05-01T03:42:24;97023.28;;;12.22;100.00
10348;BME280;5220;43.192;23.284;2023-05-01T03:44:51;97033.34;;;12.16;100.00
10348;BME280;5220;43.192;23.284;2023-05-01T03:47:18;97036.06;;;12.14;100.00
10348;BME280;5220;43.192;23.284;2023-05-01T03:49:44;97034.78;;;12.20;100.00
10348;BME280;5220;43.192;23.284;2023-05-01T03:52:13;97035.00;;;12.28;100.00
10348;BME280;5220;43.192;23.284;2023-05-01T03:54:40;97036.44;;;12.32;100.00
10348;BME280;5220;43.192;23.284;2023-05-01T03:57:08;97037.13;;;12.34;100.00
10348;BME280;5220;43.192;23.284;2023-05-01T03:59:35;97035.00;;;12.28;100.00
10348;BME280;5220;43.192;23.284;2023-05-01T04:02:03;97041.41;;;12.35;100.00
10348;BME280;5220;43.192;23.284;2023-05-01T04:04:30;97038.31;;;12.30;100.00
10348;BME280;5220;43.192;23.284;2023-05-01T04:06:58;97042.59;;;12.20;100.00
10348;BME280;5220;43.192;23.284;2023-05-01T04:09:27;97047.44;;;12.24;100.00
10348;BME280;5220;43.192;23.284;2023-05-01T04:11:54;97049.69;;;12.40;100.00
10348;BME280;5220;43.192;23.284;2023-05-01T04:14:21;97045.66;;;12.47;100.00
10348;BME280;5220;43.192;23.284;2023-05-01T04:16:48;97048.25;;;12.47;100.00
10348;BME280;5220;43.192;23.284;2023-05-01T04:19:15;97048.13;;;12.60;100.00
10348;BME280;5220;43.192;23.284;2023-05-01T04:21:42;97060.53;;;12.67;100.00
10348;BME280;5220;43.192;23.284;2023-05-01T04:24:08;97061.97;;;12.71;100.00
10348;BME280;5220;43.192;23.284;2023-05-01T04:26:36;97062.81;;;12.72;100.00
10348;BME280;5220;43.192;23.284;2023-05-01T04:29:03;97056.41;;;12.76;100.00
10348;BME280;5220;43.192;23.284;2023-05-01T04:31:30;97069.78;;;12.82;100.00
10348;BME280;5220;43.192;23.284;2023-05-01T04:33:57;97065.13;;;12.86;100.00
10348;BME280;5220;43.192;23.284;2023-05-01T04:36:23;97065.59;;;12.91;100.00
10348;BME280;5220;43.192;23.284;2023-05-01T04:38:50;97066.88;;;12.97;100.00
10348;BME280;5220;43.192;23.284;2023-05-01T04:41:17;97072.44;;;13.03;100.00
10348;BME280;5220;43.192;23.284;2023-05-01T04:43:45;97076.69;;;13.15;100.00
10348;BME280;5220;43.192;23.284;2023-05-01T04:46:12;97077.47;;;13.27;100.00
10348;BME280;5220;43.192;23.284;2023-05-01T04:48:38;97076.59;;;13.37;100.00
10348;BME280;5220;43.192;23.284;2023-05-01T04:51:05;97070.50;;;13.48;100.00
10348;BME280;5220;43.192;23.284;2023-05-01T04:53:32;97077.34;;;13.60;100.00
10348;BME280;5220;43.192;23.284;2023-05-01T04:55:58;97080.44;;;13.75;100.00
10348;BME280;5220;43.192;23.284;2023-05-01T04:58:25;97082.19;;;13.85;100.00
10348;BME280;5220;43.192;23.284;2023-05-01T05:00:53;97078.38;;;13.99;100.00
10348;BME280;5220;43.192;23.284;2023-05-01T05:03:20;97079.13;;;14.11;100.00
10348;BME280;5220;43.192;23.284;2023-05-01T05:05:46;97079.88;;;14.22;100.00
10348;BME280;5220;43.192;23.284;2023-05-01T05:08:13;97082.72;;;14.40;100.00
10348;BME280;5220;43.192;23.284;2023-05-01T05:10:40;97081.97;;;14.59;100.00
10348;BME280;5220;43.192;23.284;2023-05-01T05:13:07;97088.66;;;14.82;100.00
10348;BME280;5220;43.192;23.284;2023-05-01T05:15:34;97095.28;;;15.05;100.00
10348;BME280;5220;43.192;23.284;2023-05-01T05:18:02;97092.69;;;15.15;100.00
10348;BME280;5220;43.192;23.284;2023-05-01T05:20:29;97106.38;;;15.47;100.00
10348;BME280;5220;43.192;23.284;2023-05-01T05:22:56;97102.66;;;15.69;100.00
10348;BME280;5220;43.192;23.284;2023-05-01T05:25:23;97101.38;;;15.92;100.00
10348;BME280;5220;43.192;23.284;2023-05-01T05:27:49;97093.44;;;16.21;100.00
10348;BME280;5220;43.192;23.284;2023-05-01T05:30:16;97101.50;;;16.56;100.00
10348;BME280;5220;43.192;23.284;2023-05-01T05:32:43;97098.91;;;16.74;100.00
10348;BME280;5220;43.192;23.284;2023-05-01T05:35:13;97098.75;;;16.75;100.00
10348;BME280;5220;43.192;23.284;2023-05-01T05:37:40;97102.34;;;17.01;100.00
10348;BME280;5220;43.192;23.284;2023-05-01T05:40:08;97106.09;;;16.99;100.00
10348;BME280;5220;43.192;23.284;2023-05-01T05:42:34;97110.66;;;16.97;100.00
10348;BME280;5220;43.192;23.284;2023-05-01T05:45:01;97118.84;;;16.94;100.00
10348;BME280;5220;43.192;23.284;2023-05-01T05:47:28;97118.13;;;16.74;100.00
10348;BME280;5220;43.192;23.284;2023-05-01T05:49:54;97114.03;;;16.89;100.00
10348;BME280;5220;43.192;23.284;2023-05-01T05:52:23;97114.16;;;16.88;100.00
10348;BME280;5220;43.192;23.284;2023-05-01T05:54:49;97122.97;;;16.69;100.00
10348;BME280;5220;43.192;23.284;2023-05-01T05:57:16;97128.13;;;16.61;100.00
10348;BME280;5220;43.192;23.284;2023-05-01T05:59:43;97130.25;;;16.38;100.00
10348;BME280;5220;43.192;23.284;2023-05-01T06:02:10;97131.31;;;16.08;100.00
10348;BME280;5220;43.192;23.284;2023-05-01T06:04:36;97137.41;;;15.99;100.00
10348;BME280;5220;43.192;23.284;2023-05-01T06:07:03;97146.00;;;15.73;100.00
10348;BME280;5220;43.192;23.284;2023-05-01T06:09:32;97143.47;;;15.33;100.00
10348;BME280;5220;43.192;23.284;2023-05-01T06:11:58;97153.84;;;15.44;100.00
10348;BME280;5220;43.192;23.284;2023-05-01T06:14:26;97153.06;;;15.53;100.00
10348;BME280;5220;43.192;23.284;2023-05-01T06:16:52;97145.88;;;15.55;100.00
10348;BME280;5220;43.192;23.284;2023-05-01T06:19:19;97159.38;;;15.70;100.00
10348;BME280;5220;43.192;23.284;2023-05-01T06:21:46;97156.19;;;15.66;100.00
10348;BME280;5220;43.192;23.284;2023-05-01T06:24:13;97160.75;;;15.54;100.00
10348;BME280;5220;43.192;23.284;2023-05-01T06:26:41;97149.44;;;15.64;100.00
10348;BME280;5220;43.192;23.284;2023-05-01T06:29:08;97161.72;;;15.73;100.00
10348;BME280;5220;43.192;23.284;2023-05-01T06:31:34;97161.59;;;15.74;100.00
10348;BME280;5220;43.192;23.284;2023-05-01T06:34:01;97165.19;;;15.92;100.00
10348;BME280;5220;43.192;23.284;2023-05-01T06:36:28;97163.22;;;16.13;100.00
10348;BME280;5220;43.192;23.284;2023-05-01T06:38:55;97158.53;;;16.07;100.00
10348;BME280;5220;43.192;23.284;2023-05-01T06:41:22;97170.09;;;16.24;100.00
10348;BME280;5220;43.192;23.284;2023-05-01T06:43:51;97169.25;;;16.33;100.00
10348;BME280;5220;43.192;23.284;2023-05-01T06:46:18;97173.53;;;16.44;100.00
10348;BME280;5220;43.192;23.284;2023-05-01T06:48:44;97172.78;;;16.51;100.00
10348;BME280;5220;43.192;23.284;2023-05-01T06:51:11;97177.47;;;16.67;100.00
10348;BME280;5220;43.192;23.284;2023-05-01T06:53:39;97178.88;;;16.61;100.00
10348;BME280;5220;43.192;23.284;2023-05-01T06:56:06;97184.81;;;16.54;100.00
10348;BME280;5220;43.192;23.284;2023-05-01T06:58:33;97175.16;;;16.45;100.00
10348;BME280;5220;43.192;23.284;2023-05-01T07:01:01;97190.03;;;16.73;100.00
10348;BME280;5220;43.192;23.284;2023-05-01T07:03:28;97185.31;;;16.77;100.00
10348;BME280;5220;43.192;23.284;2023-05-01T07:05:54;97192.63;;;16.83;100.00
10348;BME280;5220;43.192;23.284;2023-05-01T07:08:21;97196.31;;;16.90;100.00
10348;BME280;5220;43.192;23.284;2023-05-01T07:10:48;97194.75;;;16.97;100.00
10348;BME280;5220;43.192;23.284;2023-05-01T07:13:15;97185.47;;;17.02;100.00
10348;BME280;5220;43.192;23.284;2023-05-01T07:15:42;97193.63;;;17.09;100.00
10348;BME280;5220;43.192;23.284;2023-05-01T07:18:11;97184.34;;;17.32;100.00
10348;BME280;5220;43.192;23.284;2023-05-01T07:20:37;97184.81;;;17.45;100.00
10348;BME280;5220;43.192;23.284;2023-05-01T07:23:04;97196.56;;;17.24;100.00
10348;BME280;5220;43.192;23.284;2023-05-01T07:25:31;97195.69;;;17.50;100.00
10348;BME280;5220;43.192;23.284;2023-05-01T07:27:57;97195.00;;;17.58;100.00
10348;BME280;5220;43.192;23.284;2023-05-01T07:30:26;97193.88;;;17.60;100.00
10348;BME280;5220;43.192;23.284;2023-05-01T07:32:54;97192.59;;;17.82;100.00
10348;BME280;5220;43.192;23.284;2023-05-01T07:35:23;97198.16;;;17.97;100.00
10348;BME280;5220;43.192;23.284;2023-05-01T07:37:51;97192.78;;;18.06;100.00
10348;BME280;5220;43.192;23.284;2023-05-01T07:40:19;97196.22;;;18.24;100.00
10348;BME280;5220;43.192;23.284;2023-05-01T07:42:46;97189.53;;;18.30;100.00
10348;BME280;5220;43.192;23.284;2023-05-01T07:45:12;97199.38;;;18.28;100.00
10348;BME280;5220;43.192;23.284;2023-05-01T07:47:39;97199.47;;;18.18;100.00
10348;BME280;5220;43.192;23.284;2023-05-01T07:50:09;97200.66;;;17.98;100.00
10348;BME280;5220;43.192;23.284;2023-05-01T07:52:37;97198.19;;;18.22;100.00
10348;BME280;5220;43.192;23.284;2023-05-01T07:55:04;97198.47;;;18.37;100.00
10348;BME280;5220;43.192;23.284;2023-05-01T07:57:31;97201.00;;;18.47;100.00
10348;BME280;5220;43.192;23.284;2023-05-01T07:59:58;97203.94;;;18.61;100.00
10348;BME280;5220;43.192;23.284;2023-05-01T08:02:25;97195.13;;;18.78;100.00
10348;BME280;5220;43.192;23.284;2023-05-01T08:04:52;97195.31;;;18.77;100.00
10348;BME280;5220;43.192;23.284;2023-05-01T08:07:19;97202.94;;;18.88;100.00
10348;BME280;5220;43.192;23.284;2023-05-01T08:09:47;97200.19;;;18.98;100.00
10348;BME280;5220;43.192;23.284;2023-05-01T08:12:13;97197.09;;;19.10;100.00
10348;BME280;5220;43.192;23.284;2023-05-01T08:14:40;97198.56;;;19.05;100.00
10348;BME280;5220;43.192;23.284;2023-05-01T08:17:07;97200.91;;;19.16;100.00
10348;BME280;5220;43.192;23.284;2023-05-01T08:19:33;97203.97;;;19.03;100.00
10348;BME280;5220;43.192;23.284;2023-05-01T08:22:00;97202.53;;;18.75;100.00
10348;BME280;5220;43.192;23.284;2023-05-01T08:24:28;97204.28;;;18.92;100.00
10348;BME280;5220;43.192;23.284;2023-05-01T08:26:56;97205.25;;;18.91;100.00
10348;BME280;5220;43.192;23.284;2023-05-01T08:29:23;97212.94;;;18.76;100.00
10348;BME280;5220;43.192;23.284;2023-05-01T08:31:50;97206.63;;;19.03;100.00
10348;BME280;5220;43.192;23.284;2023-05-01T08:34:16;97211.66;;;19.22;100.00
10348;BME280;5220;43.192;23.284;2023-05-01T08:36:43;97208.16;;;19.14;100.00
10348;BME280;5220;43.192;23.284;2023-05-01T08:39:11;97208.03;;;19.23;100.00
10348;BME280;5220;43.192;23.284;2023-05-01T08:41:38;97201.16;;;19.39;100.00
10348;BME280;5220;43.192;23.284;2023-05-01T08:44:07;97197.84;;;19.37;100.00
10348;BME280;5220;43.192;23.284;2023-05-01T08:46:43;97206.53;;;19.55;99.26
10348;BME280;5220;43.192;23.284;2023-05-01T08:49:14;97203.22;;;19.61;97.90
10348;BME280;5220;43.192;23.284;2023-05-01T08:51:41;97210.00;;;19.63;98.62
10348;BME280;5220;43.192;23.284;2023-05-01T08:54:10;97206.75;;;19.85;98.57
10348;BME280;5220;43.192;23.284;2023-05-01T08:56:37;97202.28;;;19.94;99.11
10348;BME280;5220;43.192;23.284;2023-05-01T08:59:08;97198.34;;;19.98;97.85
10348;BME280;5220;43.192;23.284;2023-05-01T09:01:36;97206.91;;;20.16;94.53
10348;BME280;5220;43.192;23.284;2023-05-01T09:04:05;97202.97;;;20.28;95.14
10348;BME280;5220;43.192;23.284;2023-05-01T09:06:33;97204.94;;;20.10;94.86
10348;BME280;5220;43.192;23.284;2023-05-01T09:09:00;97215.53;;;20.34;90.81
10348;BME280;5220;43.192;23.284;2023-05-01T09:11:27;97205.63;;;20.28;93.06
10348;BME280;5220;43.192;23.284;2023-05-01T09:13:55;97206.78;;;20.34;88.68
10348;BME280;5220;43.192;23.284;2023-05-01T09:16:24;97195.19;;;20.51;92.06
10348;BME280;5220;43.192;23.284;2023-05-01T09:18:50;97202.94;;;20.53;88.68
10348;BME280;5220;43.192;23.284;2023-05-01T09:21:17;97218.81;;;20.20;87.31
10348;BME280;5220;43.192;23.284;2023-05-01T09:23:44;97204.78;;;20.44;90.71
10348;BME280;5220;43.192;23.284;2023-05-01T09:26:11;97196.69;;;20.54;90.10
10348;BME280;5220;43.192;23.284;2023-05-01T09:28:41;97200.63;;;20.66;87.66
10348;BME280;5220;43.192;23.284;2023-05-01T09:31:22;97200.63;;;20.66;82.91
10348;BME280;5220;43.192;23.284;2023-05-01T09:33:54;97205.00;;;20.98;84.51
10348;BME280;5220;43.192;23.284;2023-05-01T09:36:22;97197.22;;;21.12;82.61
10348;BME280;5220;43.192;23.284;2023-05-01T09:38:49;97199.22;;;21.10;84.84
10348;BME280;5220;43.192;23.284;2023-05-01T09:41:15;97197.22;;;21.12;81.49
10348;BME280;5220;43.192;23.284;2023-05-01T09:43:48;97198.47;;;21.32;79.56
10348;BME280;5220;43.192;23.284;2023-05-01T09:46:15;97196.09;;;21.37;81.57
10348;BME280;5220;43.192;23.284;2023-05-01T09:48:53;97183.66;;;21.46;77.10
10348;BME280;5220;43.192;23.284;2023-05-01T09:51:21;97190.84;;;21.60;76.77
10348;BME280;5220;43.192;23.284;2023-05-01T09:53:50;97190.19;;;21.27;77.67
10348;BME280;5220;43.192;23.284;2023-05-01T09:56:18;97182.19;;;21.43;75.02
10348;BME280;5220;43.192;23.284;2023-05-01T09:58:45;97193.38;;;21.23;80.00
10348;BME280;5220;43.192;23.284;2023-05-01T10:01:13;97182.63;;;21.08;78.73
10348;BME280;5220;43.192;23.284;2023-05-01T10:03:42;97188.34;;;20.89;77.36
10348;BME280;5220;43.192;23.284;2023-05-01T10:06:10;97174.09;;;20.90;72.72
10348;BME280;5220;43.192;23.284;2023-05-01T10:08:44;97176.06;;;21.04;76.22
10348;BME280;5220;43.192;23.284;2023-05-01T10:11:12;97175.88;;;21.06;69.30
10348;BME280;5220;43.192;23.284;2023-05-01T10:13:39;97165.66;;;21.41;72.88
10348;BME280;5220;43.192;23.284;2023-05-01T10:16:06;97171.84;;;21.57;65.28
10348;BME280;5220;43.192;23.284;2023-05-01T10:18:35;97178.59;;;21.59;63.09
10348;BME280;5220;43.192;23.284;2023-05-01T10:21:03;97174.78;;;21.31;64.23
10348;BME280;5220;43.192;23.284;2023-05-01T10:23:31;97170.63;;;21.36;67.79
10348;BME280;5220;43.192;23.284;2023-05-01T10:26:00;97169.69;;;21.60;69.17
10348;BME280;5220;43.192;23.284;2023-05-01T10:28:28;97169.38;;;21.78;66.26
10348;BME280;5220;43.192;23.284;2023-05-01T10:30:56;97171.41;;;21.76;62.40
10348;BME280;5220;43.192;23.284;2023-05-01T10:33:24;97172.91;;;21.70;62.08
10348;BME280;5220;43.192;23.284;2023-05-01T10:35:55;97161.91;;;21.81;64.26
10348;BME280;5220;43.192;23.284;2023-05-01T10:38:25;97173.41;;;21.96;67.51
10348;BME280;5220;43.192;23.284;2023-05-01T10:40:56;97168.94;;;22.20;68.90
10348;BME280;5220;43.192;23.284;2023-05-01T10:43:25;97162.19;;;22.32;66.14
10348;BME280;5220;43.192;23.284;2023-05-01T10:45:53;97157.53;;;22.48;60.47
10348;BME280;5220;43.192;23.284;2023-05-01T10:48:53;97165.91;;;22.60;57.43
10348;BME280;5220;43.192;23.284;2023-05-01T10:51:21;97161.75;;;22.58;54.82
10348;BME280;5220;43.192;23.284;2023-05-01T10:56:41;97166.88;;;22.59;57.09
10348;BME280;5220;43.192;23.284;2023-05-01T10:59:08;97163.41;;;22.59;58.77
10348;BME280;5220;43.192;23.284;2023-05-01T11:01:37;97148.78;;;22.63;60.78
10348;BME280;5220;43.192;23.284;2023-05-01T11:04:06;97160.38;;;22.47;61.41
10348;BME280;5220;43.192;23.284;2023-05-01T11:06:34;97166.19;;;22.28;63.65
10348;BME280;5220;43.192;23.284;2023-05-01T11:09:01;97171.22;;;22.23;69.12
10348;BME280;5220;43.192;23.284;2023-05-01T11:11:49;97166.16;;;22.13;66.96
10348;BME280;5220;43.192;23.284;2023-05-01T11:14:16;97172.91;;;21.70;72.39
10348;BME280;5220;43.192;23.284;2023-05-01T11:16:44;97166.19;;;21.90;74.91
10348;BME280;5220;43.192;23.284;2023-05-01T11:22:17;97168.09;;;21.51;78.62
10348;BME280;5220;43.192;23.284;2023-05-01T11:24:44;97167.69;;;21.31;78.36
10348;BME280;5220;43.192;23.284;2023-05-01T11:27:14;97169.00;;;21.35;92.53
10348;BME280;5220;43.192;23.284;2023-05-01T11:29:45;97174.41;;;21.03;100.00
10348;BME280;5220;43.192;23.284;2023-05-01T11:32:23;97176.22;;;21.11;100.00
10348;BME280;5220;43.192;23.284;2023-05-01T11:34:52;97178.69;;;21.12;100.00
10348;BME280;5220;43.192;23.284;2023-05-01T11:37:19;97181.69;;;21.01;100.00
10348;BME280;5220;43.192;23.284;2023-05-01T11:39:47;97172.81;;;20.78;100.00
10348;BME280;5220;43.192;23.284;2023-05-01T11:42:19;97169.53;;;20.68;100.00
10348;BME280;5220;43.192;23.284;2023-05-01T11:45:07;97174.81;;;20.68;100.00
10348;BME280;5220;43.192;23.284;2023-05-01T11:47:35;97168.53;;;20.77;100.00
10348;BME280;5220;43.192;23.284;2023-05-01T11:50:02;97167.09;;;20.66;100.00
10348;BME280;5220;43.192;23.284;2023-05-01T11:52:29;97172.88;;;20.62;97.64
10348;BME280;5220;43.192;23.284;2023-05-01T11:54:55;97170.63;;;20.98;96.97
10348;BME280;5220;43.192;23.284;2023-05-01T11:57:23;97163.00;;;21.11;89.13
10348;BME280;5220;43.192;23.284;2023-05-01T11:59:50;97168.72;;;21.22;89.95
10348;BME280;5220;43.192;23.284;2023-05-01T12:02:18;97167.47;;;21.10;87.56
10348;BME280;5220;43.192;23.284;2023-05-01T12:04:45;97155.28;;;20.85;84.05
10348;BME280;5220;43.192;23.284;2023-05-01T12:07:19;97149.81;;;20.86;79.30
10348;BME280;5220;43.192;23.284;2023-05-01T12:09:46;97157.53;;;21.12;81.26
10348;BME280;5220;43.192;23.284;2023-05-01T12:12:13;97148.25;;;21.16;84.84
10348;BME280;5220;43.192;23.284;2023-05-01T12:14:41;97150.47;;;21.35;74.91
10348;BME280;5220;43.192;23.284;2023-05-01T12:17:08;97149.16;;;21.31;71.98
10348;BME280;5220;43.192;23.284;2023-05-01T12:19:45;97139.47;;;21.47;66.25
10348;BME280;5220;43.192;23.284;2023-05-01T12:22:13;97125.75;;;21.43;66.94
10348;BME280;5220;43.192;23.284;2023-05-01T12:24:47;97134.56;;;21.89;64.23
10348;BME280;5220;43.192;23.284;2023-05-01T12:27:15;97133.91;;;22.10;62.93
10348;BME280;5220;43.192;23.284;2023-05-01T12:29:44;97138.41;;;22.24;58.70
10348;BME280;5220;43.192;23.284;2023-05-01T12:32:12;97142.00;;;22.45;60.01
10348;BME280;5220;43.192;23.284;2023-05-01T12:34:39;97140.91;;;22.40;56.03
10348;BME280;5220;43.192;23.284;2023-05-01T12:37:06;97124.72;;;22.49;56.95
10348;BME280;5220;43.192;23.284;2023-05-01T12:39:35;97128.41;;;22.63;60.75
10348;BME280;5220;43.192;23.284;2023-05-01T12:42:10;97122.56;;;22.68;62.98
10348;BME280;5220;43.192;23.284;2023-05-01T12:44:37;97124.66;;;22.87;59.48
10348;BME280;5220;43.192;23.284;2023-05-01T12:47:07;97129.06;;;22.94;58.30
10348;BME280;5220;43.192;23.284;2023-05-01T12:49:35;97132.03;;;23.21;57.53
10348;BME280;5220;43.192;23.284;2023-05-01T12:52:03;97124.69;;;23.23;61.48
10348;BME280;5220;43.192;23.284;2023-05-01T12:54:31;97122.91;;;22.79;63.80
10348;BME280;5220;43.192;23.284;2023-05-01T12:57:05;97126.59;;;22.93;59.14
10348;BME280;5220;43.192;23.284;2023-05-01T12:59:34;97123.44;;;23.19;62.12
10348;BME280;5220;43.192;23.284;2023-05-01T13:02:03;97116.25;;;22.54;59.15
10348;BME280;5220;43.192;23.284;2023-05-01T13:04:31;97123.84;;;22.72;61.75
10348;BME280;5220;43.192;23.284;2023-05-01T13:06:59;97125.81;;;22.55;65.67
10348;BME280;5220;43.192;23.284;2023-05-01T13:09:27;97123.44;;;22.45;66.29
10348;BME280;5220;43.192;23.284;2023-05-01T13:11:56;97131.25;;;22.10;67.05